Terminal Aerodrome Forecast
Issued by NWS

Current Version | Previous Version | Text Only | Print | Product List | Glossary On
Versions: 1 2 3 4 5 6 7 8 9 10 11 12 13
000
FTUS43 KIND 252300
TAFBMG
TAF
KBMG 252322Z 2600/2624 06012KT P6SM BKN008 OVC030
      TEMPO 2600/2603 4SM -RA BR
     FM260600 05013KT P6SM BKN015 OVC040
     FM260800 04011KT P6SM SCT015 OVC040
     FM261100 03011KT P6SM SCT040 SCT080 BKN250
     FM261600 02013KT P6SM SCT040 SCT250
      AMD LTD TO CLD VIS AND WIND 2601/2613=

USA.gov is the U.S. government's official web portal to all federal, state and local government web resources and services.